sensor_id;sensor_type;location;lat;lon;timestamp;pressure;altitude;pressure_sealevel;temperature;humidity
49947;BME280;35839;48.662;13.300;2023-03-20T05:39:53;97595.97;;;5.45;100.00
49947;BME280;35839;48.662;13.300;2023-03-20T05:42:19;97596.69;;;5.23;100.00
49947;BME280;35839;48.662;13.300;2023-03-20T05:44:44;97598.53;;;5.34;100.00
49947;BME280;35839;48.662;13.300;2023-03-20T05:47:10;97601.56;;;5.28;100.00
49947;BME280;35839;48.662;13.300;2023-03-20T05:49:35;97603.91;;;5.31;100.00
49947;BME280;35839;48.662;13.300;2023-03-20T05:52:01;97606.69;;;5.17;100.00
49947;BME280;35839;48.662;13.300;2023-03-20T05:54:26;97601.72;;;5.14;100.00
49947;BME280;35839;48.662;13.300;2023-03-20T05:56:51;97602.50;;;5.27;100.00
49947;BME280;35839;48.662;13.300;2023-03-20T05:59:17;97609.47;;;5.02;100.00
49947;BME280;35839;48.662;13.300;2023-03-20T06:01:42;97606.81;;;5.15;100.00
49947;BME280;35839;48.662;13.300;2023-03-20T06:04:07;97611.50;;;5.34;100.00
49947;BME280;35839;48.662;13.300;2023-03-20T06:06:33;97618.41;;;5.46;100.00
49947;BME280;35839;48.662;13.300;2023-03-20T06:09:02;97611.16;;;5.39;100.00
49947;BME280;35839;48.662;13.300;2023-03-20T06:11:28;97614.47;;;5.76;100.00
49947;BME280;35839;48.662;13.300;2023-03-20T06:13:53;97616.81;;;5.68;100.00
49947;BME280;35839;48.662;13.300;2023-03-20T06:16:20;97618.53;;;5.56;100.00
49947;BME280;35839;48.662;13.300;2023-03-20T06:18:45;97617.09;;;5.76;100.00
49947;BME280;35839;48.662;13.300;2023-03-20T06:21:10;97619.97;;;5.96;100.00
49947;BME280;35839;48.662;13.300;2023-03-20T06:23:37;97629.72;;;5.81;100.00
49947;BME280;35839;48.662;13.300;2023-03-20T06:26:03;97630.06;;;5.76;100.00
49947;BME280;35839;48.662;13.300;2023-03-20T06:28:28;97635.13;;;5.66;100.00
49947;BME280;35839;48.662;13.300;2023-03-20T06:30:54;97630.66;;;5.44;100.00
49947;BME280;35839;48.662;13.300;2023-03-20T06:33:19;97625.56;;;5.67;100.00
49947;BME280;35839;48.662;13.300;2023-03-20T06:35:45;97632.09;;;5.84;100.00
49947;BME280;35839;48.662;13.300;2023-03-20T06:38:10;97628.91;;;5.91;100.00
49947;BME280;35839;48.662;13.300;2023-03-20T06:40:36;97643.22;;;5.86;100.00
49947;BME280;35839;48.662;13.300;2023-03-20T06:43:01;97642.09;;;6.12;100.00
49947;BME280;35839;48.662;13.300;2023-03-20T06:45:26;97628.63;;;6.07;100.00
49947;BME280;35839;48.662;13.300;2023-03-20T06:47:52;97650.56;;;5.92;100.00
49947;BME280;35839;48.662;13.300;2023-03-20T06:50:17;97643.41;;;6.07;100.00
49947;BME280;35839;48.662;13.300;2023-03-20T06:52:42;97643.44;;;6.29;100.00
49947;BME280;35839;48.662;13.300;2023-03-20T06:55:09;97642.88;;;6.48;100.00
49947;BME280;35839;48.662;13.300;2023-03-20T06:57:34;97644.03;;;6.56;100.00
49947;BME280;35839;48.662;13.300;2023-03-20T06:59:59;97650.44;;;6.74;100.00
49947;BME280;35839;48.662;13.300;2023-03-20T07:02:25;97649.72;;;6.72;100.00
49947;BME280;35839;48.662;13.300;2023-03-20T07:04:50;97654.91;;;6.72;100.00
49947;BME280;35839;48.662;13.300;2023-03-20T07:07:16;97649.56;;;6.85;100.00
49947;BME280;35839;48.662;13.300;2023-03-20T07:09:41;97651.34;;;6.84;100.00
49947;BME280;35839;48.662;13.300;2023-03-20T07:12:14;97652.31;;;6.83;100.00
49947;BME280;35839;48.662;13.300;2023-03-20T07:14:41;97650.53;;;6.95;100.00
49947;BME280;35839;48.662;13.300;2023-03-20T07:17:08;97651.81;;;6.89;100.00
49947;BME280;35839;48.662;13.300;2023-03-20T07:19:37;97654.06;;;6.94;100.00
49947;BME280;35839;48.662;13.300;2023-03-20T07:22:05;97654.88;;;6.94;100.00
49947;BME280;35839;48.662;13.300;2023-03-20T07:24:32;97655.09;;;7.14;100.00
49947;BME280;35839;48.662;13.300;2023-03-20T07:26:57;97658.38;;;7.27;100.00
49947;BME280;35839;48.662;13.300;2023-03-20T07:29:23;97651.56;;;7.47;100.00
49947;BME280;35839;48.662;13.300;2023-03-20T07:31:49;97661.94;;;7.58;100.00
49947;BME280;35839;48.662;13.300;2023-03-20T07:34:15;97660.16;;;7.59;100.00
49947;BME280;35839;48.662;13.300;2023-03-20T07:36:40;97656.28;;;7.53;100.00
49947;BME280;35839;48.662;13.300;2023-03-20T07:39:09;97659.47;;;7.57;100.00
49947;BME280;35839;48.662;13.300;2023-03-20T07:41:35;97668.81;;;7.59;100.00
49947;BME280;35839;48.662;13.300;2023-03-20T07:44:00;97671.19;;;7.63;100.00
49947;BME280;35839;48.662;13.300;2023-03-20T07:46:26;97672.81;;;7.64;100.00
49947;BME280;35839;48.662;13.300;2023-03-20T07:48:51;97678.84;;;7.64;100.00
49947;BME280;35839;48.662;13.300;2023-03-20T07:51:17;97673.34;;;7.78;100.00
49947;BME280;35839;48.662;13.300;2023-03-20T07:53:42;97679.03;;;7.84;100.00
49947;BME280;35839;48.662;13.300;2023-03-20T07:56:08;97682.41;;;7.95;100.00
49947;BME280;35839;48.662;13.300;2023-03-20T07:58:33;97678.34;;;8.02;100.00
49947;BME280;35839;48.662;13.300;2023-03-20T08:00:59;97684.44;;;8.13;100.00
49947;BME280;35839;48.662;13.300;2023-03-20T08:03:24;97676.50;;;8.14;100.00
49947;BME280;35839;48.662;13.300;2023-03-20T08:05:49;97685.91;;;8.27;100.00
49947;BME280;35839;48.662;13.300;2023-03-20T08:08:15;97688.13;;;8.31;100.00
49947;BME280;35839;48.662;13.300;2023-03-20T08:10:40;97681.28;;;8.30;100.00
49947;BME280;35839;48.662;13.300;2023-03-20T08:13:05;97680.00;;;8.46;100.00
49947;BME280;35839;48.662;13.300;2023-03-20T08:15:31;97678.00;;;8.59;100.00
49947;BME280;35839;48.662;13.300;2023-03-20T08:17:56;97677.03;;;8.60;100.00
49947;BME280;35839;48.662;13.300;2023-03-20T08:20:22;97682.94;;;8.93;100.00
49947;BME280;35839;48.662;13.300;2023-03-20T08:22:48;97677.25;;;9.18;100.00
49947;BME280;35839;48.662;13.300;2023-03-20T08:25:13;97678.09;;;9.19;100.00
49947;BME280;35839;48.662;13.300;2023-03-20T08:27:39;97679.06;;;9.27;100.00
49947;BME280;35839;48.662;13.300;2023-03-20T08:30:04;97680.03;;;9.26;100.00
49947;BME280;35839;48.662;13.300;2023-03-20T08:32:30;97687.97;;;9.15;100.00
49947;BME280;35839;48.662;13.300;2023-03-20T08:34:55;97694.56;;;9.10;100.00
49947;BME280;35839;48.662;13.300;2023-03-20T08:37:21;97695.13;;;9.13;100.00
49947;BME280;35839;48.662;13.300;2023-03-20T08:39:47;97699.94;;;9.18;100.00
49947;BME280;35839;48.662;13.300;2023-03-20T08:42:13;97695.19;;;9.33;100.00
49947;BME280;35839;48.662;13.300;2023-03-20T08:44:38;97705.16;;;9.18;100.00
49947;BME280;35839;48.662;13.300;2023-03-20T08:47:04;97706.19;;;9.36;100.00
49947;BME280;35839;48.662;13.300;2023-03-20T08:49:32;97704.66;;;9.34;100.00
49947;BME280;35839;48.662;13.300;2023-03-20T08:51:58;97706.34;;;9.64;100.00
49947;BME280;35839;48.662;13.300;2023-03-20T08:54:23;97704.69;;;9.53;100.00
49947;BME280;35839;48.662;13.300;2023-03-20T08:56:49;97692.72;;;9.50;100.00
49947;BME280;35839;48.662;13.300;2023-03-20T08:59:15;97706.88;;;9.48;100.00
49947;BME280;35839;48.662;13.300;2023-03-20T09:01:40;97695.31;;;9.50;100.00
49947;BME280;35839;48.662;13.300;2023-03-20T09:04:05;97702.66;;;9.66;100.00
49947;BME280;35839;48.662;13.300;2023-03-20T09:06:30;97701.13;;;9.64;100.00
49947;BME280;35839;48.662;13.300;2023-03-20T09:08:57;97703.50;;;9.77;100.00
49947;BME280;35839;48.662;13.300;2023-03-20T09:11:22;97699.88;;;10.07;100.00
49947;BME280;35839;48.662;13.300;2023-03-20T09:13:48;97700.44;;;10.20;100.00
49947;BME280;35839;48.662;13.300;2023-03-20T09:16:13;97689.94;;;10.49;100.00
49947;BME280;35839;48.662;13.300;2023-03-20T09:18:38;97698.72;;;10.68;100.00
49947;BME280;35839;48.662;13.300;2023-03-20T09:21:04;97691.25;;;10.73;100.00
49947;BME280;35839;48.662;13.300;2023-03-20T09:23:29;97702.63;;;10.91;100.00
49947;BME280;35839;48.662;13.300;2023-03-20T09:25:56;97694.16;;;11.07;100.00
49947;BME280;35839;48.662;13.300;2023-03-20T09:28:21;97684.47;;;11.08;100.00
49947;BME280;35839;48.662;13.300;2023-03-20T09:30:47;97682.47;;;11.47;100.00
49947;BME280;35839;48.662;13.300;2023-03-20T09:33:12;97681.13;;;11.61;100.00
49947;BME280;35839;48.662;13.300;2023-03-20T09:35:39;97677.00;;;11.76;100.00
49947;BME280;35839;48.662;13.300;2023-03-20T09:38:04;97688.16;;;11.78;100.00
49947;BME280;35839;48.662;13.300;2023-03-20T09:43:41;97677.47;;;11.90;100.00
49947;BME280;35839;48.662;13.300;2023-03-20T09:51:57;97681.16;;;11.97;100.00
49947;BME280;35839;48.662;13.300;2023-03-20T09:54:34;97684.13;;;12.02;100.00
49947;BME280;35839;48.662;13.300;2023-03-20T09:57:02;97685.03;;;11.93;100.00
49947;BME280;35839;48.662;13.300;2023-03-20T09:59:31;97676.94;;;12.04;100.00
49947;BME280;35839;48.662;13.300;2023-03-20T10:02:11;97675.72;;;11.80;100.00
49947;BME280;35839;48.662;13.300;2023-03-20T10:04:39;97669.19;;;12.02;100.00
49947;BME280;35839;48.662;13.300;2023-03-20T10:07:05;97677.97;;;12.11;100.00
49947;BME280;35839;48.662;13.300;2023-03-20T10:09:31;97675.22;;;12.13;100.00
49947;BME280;35839;48.662;13.300;2023-03-20T10:15:05;97672.81;;;12.19;100.00
49947;BME280;35839;48.662;13.300;2023-03-20T10:18:01;97670.88;;;12.04;100.00
49947;BME280;35839;48.662;13.300;2023-03-20T10:20:37;97669.47;;;12.61;100.00
49947;BME280;35839;48.662;13.300;2023-03-20T10:25:35;97675.84;;;12.93;100.00
49947;BME280;35839;48.662;13.300;2023-03-20T10:28:10;97669.25;;;12.55;100.00
49947;BME280;35839;48.662;13.300;2023-03-20T10:34:40;97668.47;;;13.39;100.00
49947;BME280;35839;48.662;13.300;2023-03-20T10:36:55;97657.97;;;13.56;100.00
49947;BME280;35839;48.662;13.300;2023-03-20T10:39:34;97658.28;;;13.44;100.00
49947;BME280;35839;48.662;13.300;2023-03-20T10:42:08;97653.03;;;13.36;100.00
49947;BME280;35839;48.662;13.300;2023-03-20T10:44:39;97646.91;;;13.27;100.00
49947;BME280;35839;48.662;13.300;2023-03-20T10:47:09;97645.47;;;13.41;100.00
49947;BME280;35839;48.662;13.300;2023-03-20T10:49:40;97648.06;;;13.33;100.00
49947;BME280;35839;48.662;13.300;2023-03-20T10:52:12;97647.34;;;13.23;100.00
49947;BME280;35839;48.662;13.300;2023-03-20T10:54:46;97647.97;;;13.59;100.00
49947;BME280;35839;48.662;13.300;2023-03-20T10:57:20;97638.75;;;13.63;100.00
49947;BME280;35839;48.662;13.300;2023-03-20T10:59:49;97640.56;;;14.20;100.00
49947;BME280;35839;48.662;13.300;2023-03-20T11:02:15;97630.31;;;14.42;100.00
49947;BME280;35839;48.662;13.300;2023-03-20T11:04:42;97636.41;;;14.50;100.00
49947;BME280;35839;48.662;13.300;2023-03-20T11:09:36;97631.13;;;14.50;100.00
49947;BME280;35839;48.662;13.300;2023-03-20T11:12:02;97632.16;;;14.97;100.00
49947;BME280;35839;48.662;13.300;2023-03-20T11:14:33;97635.56;;;14.58;100.00
49947;BME280;35839;48.662;13.300;2023-03-20T11:17:00;97635.56;;;14.66;100.00
49947;BME280;35839;48.662;13.300;2023-03-20T11:19:32;97633.97;;;14.32;100.00
49947;BME280;35839;48.662;13.300;2023-03-20T11:22:00;97630.72;;;13.81;100.00
49947;BME280;35839;48.662;13.300;2023-03-20T11:24:43;97628.25;;;13.72;100.00
49947;BME280;35839;48.662;13.300;2023-03-20T11:27:18;97624.59;;;13.73;100.00
49947;BME280;35839;48.662;13.300;2023-03-20T11:29:49;97630.81;;;13.31;100.00
49947;BME280;35839;48.662;13.300;2023-03-20T11:32:33;97635.94;;;12.98;100.00
49947;BME280;35839;48.662;13.300;2023-03-20T11:35:29;97632.53;;;13.05;100.00
49947;BME280;35839;48.662;13.300;2023-03-20T11:38:15;97625.00;;;13.19;100.00
49947;BME280;35839;48.662;13.300;2023-03-20T11:40:41;97628.09;;;13.89;100.00
49947;BME280;35839;48.662;13.300;2023-03-20T11:43:15;97630.22;;;13.78;100.00
49947;BME280;35839;48.662;13.300;2023-03-20T11:45:44;97618.88;;;13.85;100.00
49947;BME280;35839;48.662;13.300;2023-03-20T11:48:17;97623.13;;;13.62;100.00
49947;BME280;35839;48.662;13.300;2023-03-20T11:51:04;97625.91;;;12.93;100.00
49947;BME280;35839;48.662;13.300;2023-03-20T11:53:35;97619.19;;;13.58;100.00
49947;BME280;35839;48.662;13.300;2023-03-20T11:56:04;97626.09;;;13.75;100.00
49947;BME280;35839;48.662;13.300;2023-03-20T11:58:31;97625.56;;;13.39;100.00
49947;BME280;35839;48.662;13.300;2023-03-20T12:00:57;97620.81;;;13.51;100.00
49947;BME280;35839;48.662;13.300;2023-03-20T12:03:51;97618.03;;;13.60;100.00
49947;BME280;35839;48.662;13.300;2023-03-20T12:06:27;97615.91;;;13.47;100.00
49947;BME280;35839;48.662;13.300;2023-03-20T12:09:04;97623.13;;;13.54;100.00
49947;BME280;35839;48.662;13.300;2023-03-20T12:16:56;97620.69;;;13.10;100.00
49947;BME280;35839;48.662;13.300;2023-03-20T12:19:29;97616.03;;;12.87;100.00
49947;BME280;35839;48.662;13.300;2023-03-20T12:22:02;97612.72;;;13.27;100.00
49947;BME280;35839;48.662;13.300;2023-03-20T12:24:38;97615.72;;;12.90;100.00
49947;BME280;35839;48.662;13.300;2023-03-20T12:29:56;97609.25;;;12.76;100.00
49947;BME280;35839;48.662;13.300;2023-03-20T12:34:58;97600.38;;;12.77;100.00
49947;BME280;35839;48.662;13.300;2023-03-20T12:37:26;97601.31;;;13.11;100.00
49947;BME280;35839;48.662;13.300;2023-03-20T12:39:58;97598.31;;;12.89;100.00
49947;BME280;35839;48.662;13.300;2023-03-20T12:43:03;97598.56;;;13.28;100.00
49947;BME280;35839;48.662;13.300;2023-03-20T12:45:38;97600.50;;;12.68;100.00
49947;BME280;35839;48.662;13.300;2023-03-20T12:48:50;97601.91;;;12.88;100.00
49947;BME280;35839;48.662;13.300;2023-03-20T12:51:31;97600.03;;;13.15;100.00
49947;BME280;35839;48.662;13.300;2023-03-20T12:54:13;97598.13;;;13.41;100.00
49947;BME280;35839;48.662;13.300;2023-03-20T12:57:04;97591.97;;;13.16;100.00
49947;BME280;35839;48.662;13.300;2023-03-20T13:02:12;97592.22;;;13.56;100.00
49947;BME280;35839;48.662;13.300;2023-03-20T13:07:57;97591.06;;;13.34;100.00
49947;BME280;35839;48.662;13.300;2023-03-20T13:10:38;97587.94;;;13.38;100.00
49947;BME280;35839;48.662;13.300;2023-03-20T13:18:37;97579.63;;;13.17;100.00
49947;BME280;35839;48.662;13.300;2023-03-20T13:21:12;97582.22;;;13.00;100.00
49947;BME280;35839;48.662;13.300;2023-03-20T13:23:45;97591.44;;;13.04;100.00
49947;BME280;35839;48.662;13.300;2023-03-20T13:29:08;97589.34;;;13.24;100.00
49947;BME280;35839;48.662;13.300;2023-03-20T13:31:59;97588.84;;;13.21;100.00
49947;BME280;35839;48.662;13.300;2023-03-20T13:37:32;97585.84;;;13.07;100.00
49947;BME280;35839;48.662;13.300;2023-03-20T13:40:20;97584.59;;;13.20;100.00
49947;BME280;35839;48.662;13.300;2023-03-20T13:42:52;97585.47;;;12.78;100.00
49947;BME280;35839;48.662;13.300;2023-03-20T13:48:36;97585.03;;;12.99;100.00
49947;BME280;35839;48.662;13.300;2023-03-20T13:51:16;97580.53;;;12.83;100.00
49947;BME280;35839;48.662;13.300;2023-03-20T13:53:59;97576.25;;;12.82;100.00
49947;BME280;35839;48.662;13.300;2023-03-20T13:59:29;97576.38;;;13.15;100.00
49947;BME280;35839;48.662;13.300;2023-03-20T14:02:03;97573.28;;;13.44;100.00
49947;BME280;35839;48.662;13.300;2023-03-20T14:04:33;97569.97;;;13.17;100.00
49947;BME280;35839;48.662;13.300;2023-03-20T14:06:59;97574.97;;;13.45;100.00
49947;BME280;35839;48.662;13.300;2023-03-20T14:09:35;97577.72;;;13.52;100.00
49947;BME280;35839;48.662;13.300;2023-03-20T14:12:08;97570.84;;;13.51;100.00
49947;BME280;35839;48.662;13.300;2023-03-20T14:14:51;97570.50;;;13.70;100.00
49947;BME280;35839;48.662;13.300;2023-03-20T14:17:28;97564.53;;;14.09;100.00
49947;BME280;35839;48.662;13.300;2023-03-20T14:19:55;97564.44;;;15.21;100.00
49947;BME280;35839;48.662;13.300;2023-03-20T14:22:26;97565.22;;;14.98;100.00
49947;BME280;35839;48.662;13.300;2023-03-20T14:24:58;97577.25;;;14.53;100.00
49947;BME280;35839;48.662;13.300;2023-03-20T14:27:27;97564.69;;;14.16;100.00
49947;BME280;35839;48.662;13.300;2023-03-20T14:29:53;97562.88;;;14.16;100.00
49947;BME280;35839;48.662;13.300;2023-03-20T14:40:21;97556.81;;;14.71;100.00
49947;BME280;35839;48.662;13.300;2023-03-20T14:42:58;97547.56;;;14.75;100.00
49947;BME280;35839;48.662;13.300;2023-03-20T14:45:46;97552.19;;;14.73;100.00
49947;BME280;35839;48.662;13.300;2023-03-20T14:48:36;97549.56;;;14.65;100.00
49947;BME280;35839;48.662;13.300;2023-03-20T14:51:26;97555.34;;;13.97;100.00
49947;BME280;35839;48.662;13.300;2023-03-20T14:53:57;97550.75;;;13.99;100.00
49947;BME280;35839;48.662;13.300;2023-03-20T14:56:41;97543.44;;;14.25;100.00
49947;BME280;35839;48.662;13.300;2023-03-20T14:59:09;97541.59;;;14.34;100.00
49947;BME280;35839;48.662;13.300;2023-03-20T15:04:35;97541.38;;;13.88;100.00
49947;BME280;35839;48.662;13.300;2023-03-20T15:07:10;97531.16;;;14.01;100.00
49947;BME280;35839;48.662;13.300;2023-03-20T15:09:41;97526.75;;;13.85;100.00
49947;BME280;35839;48.662;13.300;2023-03-20T15:12:08;97528.38;;;13.86;100.00
49947;BME280;35839;48.662;13.300;2023-03-20T15:14:43;97535.13;;;13.81;100.00
49947;BME280;35839;48.662;13.300;2023-03-20T15:17:22;97545.34;;;13.51;100.00
49947;BME280;35839;48.662;13.300;2023-03-20T15:19:48;97532.34;;;13.82;100.00
49947;BME280;35839;48.662;13.300;2023-03-20T15:22:18;97533.84;;;13.44;100.00
49947;BME280;35839;48.662;13.300;2023-03-20T15:24:52;97539.59;;;13.39;100.00
49947;BME280;35839;48.662;13.300;2023-03-20T15:27:17;97536.63;;;13.59;100.00
49947;BME280;35839;48.662;13.300;2023-03-20T15:29:49;97533.31;;;13.81;100.00
49947;BME280;35839;48.662;13.300;2023-03-20T15:32:16;97533.00;;;13.76;100.00
49947;BME280;35839;48.662;13.300;2023-03-20T15:34:42;97540.25;;;13.58;100.00
49947;BME280;35839;48.662;13.300;2023-03-20T15:37:14;97537.78;;;13.48;100.00
49947;BME280;35839;48.662;13.300;2023-03-20T15:39:45;97538.63;;;13.73;100.00
49947;BME280;35839;48.662;13.300;2023-03-20T15:42:17;97532.03;;;13.61;100.00
49947;BME280;35839;48.662;13.300;2023-03-20T15:44:45;97529.91;;;13.64;100.00
49947;BME280;35839;48.662;13.300;2023-03-20T15:47:15;97535.97;;;13.48;100.00
49947;BME280;35839;48.662;13.300;2023-03-20T15:49:51;97534.66;;;13.36;100.00
49947;BME280;35839;48.662;13.300;2023-03-20T15:52:21;97538.44;;;13.66;100.00
49947;BME280;35839;48.662;13.300;2023-03-20T15:54:48;97539.91;;;13.77;100.00
49947;BME280;35839;48.662;13.300;2023-03-20T15:57:41;97539.56;;;13.97;100.00
49947;BME280;35839;48.662;13.300;2023-03-20T16:00:15;97534.78;;;13.92;100.00
49947;BME280;35839;48.662;13.300;2023-03-20T16:02:43;97528.91;;;13.65;100.00
49947;BME280;35839;48.662;13.300;2023-03-20T16:05:14;97539.09;;;13.77;100.00
49947;BME280;35839;48.662;13.300;2023-03-20T16:07:40;97539.56;;;13.97;100.00
49947;BME280;35839;48.662;13.300;2023-03-20T16:10:28;97542.38;;;13.54;100.00
49947;BME280;35839;48.662;13.300;2023-03-20T16:12:54;97534.63;;;13.77;100.00
49947;BME280;35839;48.662;13.300;2023-03-20T16:15:22;97535.78;;;13.75;100.00
49947;BME280;35839;48.662;13.300;2023-03-20T16:17:51;97537.28;;;13.61;100.00
49947;BME280;35839;48.662;13.300;2023-03-20T16:20:19;97533.34;;;13.48;100.00
49947;BME280;35839;48.662;13.300;2023-03-20T16:22:46;97527.91;;;13.66;100.00
49947;BME280;35839;48.662;13.300;2023-03-20T16:25:14;97530.22;;;13.69;100.00
49947;BME280;35839;48.662;13.300;2023-03-20T16:27:44;97529.72;;;13.58;100.00
49947;BME280;35839;48.662;13.300;2023-03-20T16:30:16;97523.28;;;13.19;100.00
49947;BME280;35839;48.662;13.300;2023-03-20T16:32:48;97524.59;;;13.15;100.00
49947;BME280;35839;48.662;13.300;2023-03-20T16:35:20;97526.72;;;13.03;100.00
49947;BME280;35839;48.662;13.300;2023-03-20T16:37:50;97526.38;;;13.06;100.00
49947;BME280;35839;48.662;13.300;2023-03-20T16:42:46;97532.56;;;12.81;100.00
49947;BME280;35839;48.662;13.300;2023-03-20T16:45:21;97530.75;;;12.73;100.00
49947;BME280;35839;48.662;13.300;2023-03-20T16:47:47;97522.34;;;12.61;100.00
49947;BME280;35839;48.662;13.300;2023-03-20T16:50:17;97526.22;;;12.49;100.00
49947;BME280;35839;48.662;13.300;2023-03-20T16:52:55;97522.69;;;12.67;100.00
49947;BME280;35839;48.662;13.300;2023-03-20T16:55:26;97529.28;;;12.79;100.00
49947;BME280;35839;48.662;13.300;2023-03-20T16:57:55;97527.59;;;12.61;100.00
49947;BME280;35839;48.662;13.300;2023-03-20T17:00:28;97528.56;;;12.52;100.00
49947;BME280;35839;48.662;13.300;2023-03-20T17:03:05;97526.22;;;12.49;100.00
49947;BME280;35839;48.662;13.300;2023-03-20T17:05:41;97525.88;;;12.44;100.00
49947;BME280;35839;48.662;13.300;2023-03-20T17:08:11;97526.47;;;12.30;100.00
49947;BME280;35839;48.662;13.300;2023-03-20T17:10:37;97526.47;;;12.30;100.00
49947;BME280;35839;48.662;13.300;2023-03-20T17:13:03;97530.28;;;12.01;100.00
49947;BME280;35839;48.662;13.300;2023-03-20T17:15:31;97537.38;;;12.09;100.00
49947;BME280;35839;48.662;13.300;2023-03-20T17:17:56;97533.44;;;11.87;100.00
49947;BME280;35839;48.662;13.300;2023-03-20T17:20:27;97533.06;;;11.99;100.00
49947;BME280;35839;48.662;13.300;2023-03-20T17:22:52;97530.44;;;11.81;100.00
49947;BME280;35839;48.662;13.300;2023-03-20T17:25:18;97532.03;;;11.92;100.00
49947;BME280;35839;48.662;13.300;2023-03-20T17:27:44;97533.75;;;11.84;100.00
49947;BME280;35839;48.662;13.300;2023-03-20T17:30:17;97535.41;;;11.85;100.00
49947;BME280;35839;48.662;13.300;2023-03-20T17:32:43;97543.34;;;11.93;100.00
49947;BME280;35839;48.662;13.300;2023-03-20T17:35:08;97541.09;;;11.80;100.00
49947;BME280;35839;48.662;13.300;2023-03-20T17:37:33;97553.19;;;11.73;100.00
49947;BME280;35839;48.662;13.300;2023-03-20T17:39:59;97545.91;;;11.85;100.00
49947;BME280;35839;48.662;13.300;2023-03-20T17:42:25;97551.06;;;11.76;100.00
49947;BME280;35839;48.662;13.300;2023-03-20T17:44:56;97549.56;;;11.92;100.00
49947;BME280;35839;48.662;13.300;2023-03-20T17:47:23;97550.41;;;11.74;100.00
49947;BME280;35839;48.662;13.300;2023-03-20T17:49:49;97547.53;;;11.86;100.00
49947;BME280;35839;48.662;13.300;2023-03-20T17:52:24;97553.09;;;12.00;100.00
49947;BME280;35839;48.662;13.300;2023-03-20T17:54:50;97552.75;;;12.04;100.00
49947;BME280;35839;48.662;13.300;2023-03-20T17:59:47;97551.75;;;11.78;100.00
49947;BME280;35839;48.662;13.300;2023-03-20T18:02:15;97547.03;;;11.82;100.00
49947;BME280;35839;48.662;13.300;2023-03-20T18:04:40;97551.66;;;11.88;100.00
49947;BME280;35839;48.662;13.300;2023-03-20T18:07:07;97547.53;;;11.86;100.00
49947;BME280;35839;48.662;13.300;2023-03-20T18:09:33;97555.03;;;11.98;100.00
49947;BME280;35839;48.662;13.300;2023-03-20T18:11:58;97549.44;;;11.75;100.00
49947;BME280;35839;48.662;13.300;2023-03-20T18:14:23;97558.00;;;11.59;100.00
49947;BME280;35839;48.662;13.300;2023-03-20T18:16:49;97552.19;;;11.48;100.00
49947;BME280;35839;48.662;13.300;2023-03-20T18:19:22;97553.63;;;11.24;100.00
49947;BME280;35839;48.662;13.300;2023-03-20T18:21:48;97553.16;;;11.11;100.00
49947;BME280;35839;48.662;13.300;2023-03-20T18:24:13;97559.59;;;10.99;100.00
49947;BME280;35839;48.662;13.300;2023-03-20T18:26:38;97557.53;;;10.92;100.00
49947;BME280;35839;48.662;13.300;2023-03-20T18:29:04;97555.47;;;10.96;100.00
49947;BME280;35839;48.662;13.300;2023-03-20T18:31:29;97559.78;;;10.87;100.00
49947;BME280;35839;48.662;13.300;2023-03-20T18:33:54;97558.06;;;10.78;100.00
49947;BME280;35839;48.662;13.300;2023-03-20T18:36:22;97553.50;;;10.80;100.00
49947;BME280;35839;48.662;13.300;2023-03-20T18:38:48;97557.88;;;10.62;100.00
49947;BME280;35839;48.662;13.300;2023-03-20T18:41:13;97560.09;;;10.57;100.00
49947;BME280;35839;48.662;13.300;2023-03-20T18:43:39;97553.00;;;10.94;100.00
49947;BME280;35839;48.662;13.300;2023-03-20T18:46:05;97552.56;;;11.17;100.00
49947;BME280;35839;48.662;13.300;2023-03-20T18:48:31;97559.59;;;11.34;100.00
49947;BME280;35839;48.662;13.300;2023-03-20T18:50:57;97567.69;;;11.41;100.00
49947;BME280;35839;48.662;13.300;2023-03-20T18:53:27;97562.00;;;11.46;100.00
49947;BME280;35839;48.662;13.300;2023-03-20T18:55:53;97564.97;;;11.51;100.00
49947;BME280;35839;48.662;13.300;2023-03-20T18:58:29;97567.09;;;11.29;100.00
49947;BME280;35839;48.662;13.300;2023-03-20T19:00:58;97562.41;;;10.87;100.00
49947;BME280;35839;48.662;13.300;2023-03-20T19:03:24;97572.72;;;10.71;100.00
49947;BME280;35839;48.662;13.300;2023-03-20T19:05:54;97563.09;;;10.62;100.00
49947;BME280;35839;48.662;13.300;2023-03-20T19:08:20;97564.31;;;10.40;100.00
49947;BME280;35839;48.662;13.300;2023-03-20T19:10:46;97566.53;;;10.25;100.00
49947;BME280;35839;48.662;13.300;2023-03-20T19:13:14;97566.03;;;10.11;100.00
49947;BME280;35839;48.662;13.300;2023-03-20T19:15:40;97559.38;;;10.27;100.00
49947;BME280;35839;48.662;13.300;2023-03-20T19:18:11;97557.84;;;10.34;100.00
49947;BME280;35839;48.662;13.300;2023-03-20T19:20:44;97559.78;;;10.32;100.00
49947;BME280;35839;48.662;13.300;2023-03-20T19:23:13;97552.50;;;10.26;100.00
49947;BME280;35839;48.662;13.300;2023-03-20T19:25:41;97556.22;;;10.33;100.00
49947;BME280;35839;48.662;13.300;2023-03-20T19:28:17;97560.22;;;10.18;100.00
49947;BME280;35839;48.662;13.300;2023-03-20T19:30:43;97562.75;;;10.09;100.00
49947;BME280;35839;48.662;13.300;2023-03-20T19:33:09;97565.50;;;10.08;100.00
49947;BME280;35839;48.662;13.300;2023-03-20T19:35:34;97568.41;;;9.95;100.00
49947;BME280;35839;48.662;13.300;2023-03-20T19:38:00;97566.09;;;9.92;100.00
49947;BME280;35839;48.662;13.300;2023-03-20T19:42:55;97568.50;;;9.56;100.00
49947;BME280;35839;48.662;13.300;2023-03-20T19:45:22;97571.09;;;9.66;100.00
49947;BME280;35839;48.662;13.300;2023-03-20T19:47:48;97568.59;;;9.64;100.00